sensor_id;sensor_type;location;lat;lon;timestamp;P1;durP1;ratioP1;P2;durP2;ratioP2
78589;SDS011;67888;50.228;7.828;2023-07-16T00:04:39;4.47;;;1.33;;
78589;SDS011;67888;50.228;7.828;2023-07-16T00:09:39;6.93;;;1.80;;
78589;SDS011;67888;50.228;7.828;2023-07-16T00:14:40;7.33;;;1.37;;
78589;SDS011;67888;50.228;7.828;2023-07-16T00:19:40;5.20;;;1.40;;
78589;SDS011;67888;50.228;7.828;2023-07-16T00:24:40;4.23;;;1.40;;
78589;SDS011;67888;50.228;7.828;2023-07-16T00:29:41;5.13;;;1.80;;
78589;SDS011;67888;50.228;7.828;2023-07-16T00:34:41;6.53;;;1.60;;
78589;SDS011;67888;50.228;7.828;2023-07-16T00:39:41;4.87;;;1.67;;
78589;SDS011;67888;50.228;7.828;2023-07-16T00:44:42;6.97;;;1.63;;
78589;SDS011;67888;50.228;7.828;2023-07-16T00:49:42;5.10;;;1.70;;
78589;SDS011;67888;50.228;7.828;2023-07-16T00:54:43;4.63;;;1.60;;
78589;SDS011;67888;50.228;7.828;2023-07-16T00:59:43;6.03;;;1.53;;
78589;SDS011;67888;50.228;7.828;2023-07-16T01:04:44;5.40;;;1.63;;
78589;SDS011;67888;50.228;7.828;2023-07-16T01:09:44;6.83;;;1.70;;
78589;SDS011;67888;50.228;7.828;2023-07-16T01:14:45;5.63;;;1.63;;
78589;SDS011;67888;50.228;7.828;2023-07-16T01:19:45;6.30;;;1.97;;
78589;SDS011;67888;50.228;7.828;2023-07-16T01:29:47;5.18;;;1.98;;
78589;SDS011;67888;50.228;7.828;2023-07-16T01:34:51;6.10;;;2.00;;
78589;SDS011;67888;50.228;7.828;2023-07-16T01:39:52;7.82;;;2.00;;
78589;SDS011;67888;50.228;7.828;2023-07-16T01:44:53;6.10;;;2.00;;
78589;SDS011;67888;50.228;7.828;2023-07-16T01:49:53;6.77;;;1.87;;
78589;SDS011;67888;50.228;7.828;2023-07-16T01:54:54;6.53;;;2.00;;
78589;SDS011;67888;50.228;7.828;2023-07-16T01:59:54;8.23;;;2.30;;
78589;SDS011;67888;50.228;7.828;2023-07-16T02:04:54;7.63;;;1.67;;
78589;SDS011;67888;50.228;7.828;2023-07-16T02:09:54;8.00;;;2.30;;
78589;SDS011;67888;50.228;7.828;2023-07-16T02:14:55;6.60;;;1.97;;
78589;SDS011;67888;50.228;7.828;2023-07-16T02:19:55;8.10;;;2.10;;
78589;SDS011;67888;50.228;7.828;2023-07-16T02:24:56;5.30;;;2.07;;
78589;SDS011;67888;50.228;7.828;2023-07-16T02:29:56;6.73;;;2.10;;
78589;SDS011;67888;50.228;7.828;2023-07-16T02:34:57;7.67;;;2.00;;
78589;SDS011;67888;50.228;7.828;2023-07-16T02:39:58;6.05;;;1.85;;
78589;SDS011;67888;50.228;7.828;2023-07-16T02:44:58;6.23;;;1.70;;
78589;SDS011;67888;50.228;7.828;2023-07-16T02:49:59;7.37;;;2.30;;
78589;SDS011;67888;50.228;7.828;2023-07-16T02:55:00;9.03;;;1.90;;
78589;SDS011;67888;50.228;7.828;2023-07-16T03:00:00;6.00;;;1.90;;
78589;SDS011;67888;50.228;7.828;2023-07-16T03:05:01;7.47;;;2.13;;
78589;SDS011;67888;50.228;7.828;2023-07-16T03:10:01;7.50;;;2.00;;
78589;SDS011;67888;50.228;7.828;2023-07-16T03:15:02;5.47;;;2.07;;
78589;SDS011;67888;50.228;7.828;2023-07-16T03:20:02;7.33;;;2.00;;
78589;SDS011;67888;50.228;7.828;2023-07-16T03:25:04;5.57;;;2.00;;
78589;SDS011;67888;50.228;7.828;2023-07-16T03:30:05;7.30;;;2.03;;
78589;SDS011;67888;50.228;7.828;2023-07-16T03:35:06;5.67;;;1.70;;
78589;SDS011;67888;50.228;7.828;2023-07-16T03:40:16;8.40;;;1.80;;
78589;SDS011;67888;50.228;7.828;2023-07-16T03:45:17;7.40;;;1.80;;
78589;SDS011;67888;50.228;7.828;2023-07-16T03:50:18;7.93;;;1.97;;
78589;SDS011;67888;50.228;7.828;2023-07-16T03:55:18;8.93;;;1.73;;
78589;SDS011;67888;50.228;7.828;2023-07-16T04:00:18;7.07;;;2.00;;
78589;SDS011;67888;50.228;7.828;2023-07-16T04:05:19;5.83;;;2.10;;
78589;SDS011;67888;50.228;7.828;2023-07-16T04:10:19;8.80;;;2.40;;
78589;SDS011;67888;50.228;7.828;2023-07-16T04:15:20;6.13;;;2.10;;
78589;SDS011;67888;50.228;7.828;2023-07-16T04:20:20;6.43;;;2.20;;
78589;SDS011;67888;50.228;7.828;2023-07-16T04:25:21;8.13;;;1.83;;
78589;SDS011;67888;50.228;7.828;2023-07-16T04:30:25;6.75;;;1.95;;
78589;SDS011;67888;50.228;7.828;2023-07-16T04:35:25;9.23;;;2.00;;
78589;SDS011;67888;50.228;7.828;2023-07-16T04:40:25;8.67;;;2.10;;
78589;SDS011;67888;50.228;7.828;2023-07-16T04:45:26;7.70;;;2.17;;
78589;SDS011;67888;50.228;7.828;2023-07-16T04:50:26;6.80;;;1.70;;
78589;SDS011;67888;50.228;7.828;2023-07-16T04:55:26;8.10;;;2.30;;
78589;SDS011;67888;50.228;7.828;2023-07-16T05:00:27;11.40;;;2.37;;
78589;SDS011;67888;50.228;7.828;2023-07-16T05:05:27;7.17;;;2.17;;
78589;SDS011;67888;50.228;7.828;2023-07-16T05:10:28;7.20;;;2.20;;
78589;SDS011;67888;50.228;7.828;2023-07-16T05:15:28;7.87;;;1.83;;
78589;SDS011;67888;50.228;7.828;2023-07-16T05:20:29;7.47;;;2.10;;
78589;SDS011;67888;50.228;7.828;2023-07-16T05:25:29;7.10;;;2.10;;
78589;SDS011;67888;50.228;7.828;2023-07-16T05:30:30;10.33;;;2.50;;
78589;SDS011;67888;50.228;7.828;2023-07-16T05:35:30;7.73;;;2.60;;
78589;SDS011;67888;50.228;7.828;2023-07-16T05:40:30;9.40;;;2.83;;
78589;SDS011;67888;50.228;7.828;2023-07-16T05:45:31;11.20;;;2.90;;
78589;SDS011;67888;50.228;7.828;2023-07-16T05:50:31;8.60;;;2.50;;
78589;SDS011;67888;50.228;7.828;2023-07-16T05:55:31;8.67;;;2.27;;
78589;SDS011;67888;50.228;7.828;2023-07-16T06:00:32;12.27;;;2.93;;
78589;SDS011;67888;50.228;7.828;2023-07-16T06:05:32;13.27;;;3.17;;
78589;SDS011;67888;50.228;7.828;2023-07-16T06:10:34;9.75;;;2.58;;
78589;SDS011;67888;50.228;7.828;2023-07-16T06:15:36;12.03;;;3.07;;
78589;SDS011;67888;50.228;7.828;2023-07-16T06:20:36;10.63;;;3.25;;
78589;SDS011;67888;50.228;7.828;2023-07-16T06:25:36;8.83;;;2.70;;
78589;SDS011;67888;50.228;7.828;2023-07-16T06:30:37;12.47;;;2.90;;
78589;SDS011;67888;50.228;7.828;2023-07-16T06:35:37;10.70;;;2.92;;
78589;SDS011;67888;50.228;7.828;2023-07-16T06:40:38;11.90;;;3.00;;
78589;SDS011;67888;50.228;7.828;2023-07-16T06:45:38;10.97;;;3.10;;
78589;SDS011;67888;50.228;7.828;2023-07-16T06:50:39;12.43;;;2.90;;
78589;SDS011;67888;50.228;7.828;2023-07-16T06:55:39;10.87;;;3.10;;
78589;SDS011;67888;50.228;7.828;2023-07-16T07:00:40;12.00;;;3.60;;
78589;SDS011;67888;50.228;7.828;2023-07-16T07:05:41;9.70;;;3.40;;
78589;SDS011;67888;50.228;7.828;2023-07-16T07:10:41;12.07;;;3.50;;
78589;SDS011;67888;50.228;7.828;2023-07-16T07:15:42;13.60;;;3.50;;
78589;SDS011;67888;50.228;7.828;2023-07-16T07:20:42;10.57;;;3.00;;
78589;SDS011;67888;50.228;7.828;2023-07-16T07:25:43;11.40;;;3.60;;
78589;SDS011;67888;50.228;7.828;2023-07-16T07:30:43;8.43;;;3.00;;
78589;SDS011;67888;50.228;7.828;2023-07-16T07:35:44;11.10;;;3.05;;
78589;SDS011;67888;50.228;7.828;2023-07-16T07:40:44;9.63;;;2.83;;
78589;SDS011;67888;50.228;7.828;2023-07-16T07:45:44;9.40;;;2.90;;
78589;SDS011;67888;50.228;7.828;2023-07-16T07:50:46;9.60;;;2.83;;
78589;SDS011;67888;50.228;7.828;2023-07-16T07:55:46;7.50;;;2.83;;
78589;SDS011;67888;50.228;7.828;2023-07-16T08:00:47;9.27;;;3.03;;
78589;SDS011;67888;50.228;7.828;2023-07-16T08:05:50;11.30;;;3.60;;
78589;SDS011;67888;50.228;7.828;2023-07-16T08:10:50;8.00;;;3.20;;
78589;SDS011;67888;50.228;7.828;2023-07-16T08:15:51;9.65;;;2.70;;
78589;SDS011;67888;50.228;7.828;2023-07-16T08:20:51;8.70;;;3.00;;
78589;SDS011;67888;50.228;7.828;2023-07-16T08:25:52;8.87;;;2.60;;
78589;SDS011;67888;50.228;7.828;2023-07-16T08:30:52;8.80;;;3.03;;
78589;SDS011;67888;50.228;7.828;2023-07-16T08:35:53;7.43;;;2.90;;
78589;SDS011;67888;50.228;7.828;2023-07-16T08:40:53;10.32;;;3.50;;
78589;SDS011;67888;50.228;7.828;2023-07-16T08:45:54;8.23;;;2.97;;
78589;SDS011;67888;50.228;7.828;2023-07-16T08:50:55;8.13;;;3.10;;
78589;SDS011;67888;50.228;7.828;2023-07-16T08:55:55;8.27;;;3.30;;
78589;SDS011;67888;50.228;7.828;2023-07-16T09:00:58;8.03;;;3.60;;
78589;SDS011;67888;50.228;7.828;2023-07-16T09:05:59;9.50;;;3.40;;
78589;SDS011;67888;50.228;7.828;2023-07-16T09:10:59;8.03;;;3.77;;
78589;SDS011;67888;50.228;7.828;2023-07-16T09:16:00;8.80;;;3.63;;
78589;SDS011;67888;50.228;7.828;2023-07-16T09:21:01;8.32;;;3.53;;
78589;SDS011;67888;50.228;7.828;2023-07-16T09:26:03;10.27;;;3.78;;
78589;SDS011;67888;50.228;7.828;2023-07-16T09:31:04;9.40;;;3.57;;
78589;SDS011;67888;50.228;7.828;2023-07-16T09:36:05;9.02;;;3.50;;
78589;SDS011;67888;50.228;7.828;2023-07-16T09:41:06;8.67;;;3.30;;
78589;SDS011;67888;50.228;7.828;2023-07-16T09:46:07;12.07;;;3.80;;
78589;SDS011;67888;50.228;7.828;2023-07-16T09:51:07;10.53;;;3.13;;
78589;SDS011;67888;50.228;7.828;2023-07-16T09:56:09;10.70;;;3.50;;
78589;SDS011;67888;50.228;7.828;2023-07-16T10:01:12;9.20;;;3.42;;
78589;SDS011;67888;50.228;7.828;2023-07-16T10:06:13;9.65;;;3.38;;
78589;SDS011;67888;50.228;7.828;2023-07-16T10:11:17;10.73;;;3.50;;
78589;SDS011;67888;50.228;7.828;2023-07-16T10:16:21;7.97;;;3.25;;
78589;SDS011;67888;50.228;7.828;2023-07-16T10:21:27;8.97;;;3.30;;
78589;SDS011;67888;50.228;7.828;2023-07-16T10:26:28;8.63;;;3.13;;
78589;SDS011;67888;50.228;7.828;2023-07-16T10:31:29;8.87;;;3.77;;
78589;SDS011;67888;50.228;7.828;2023-07-16T10:36:39;8.07;;;3.72;;
78589;SDS011;67888;50.228;7.828;2023-07-16T10:41:40;7.68;;;3.28;;
78589;SDS011;67888;50.228;7.828;2023-07-16T10:46:43;8.57;;;4.00;;
78589;SDS011;67888;50.228;7.828;2023-07-16T10:51:44;9.40;;;3.08;;
78589;SDS011;67888;50.228;7.828;2023-07-16T10:56:44;8.23;;;3.43;;
78589;SDS011;67888;50.228;7.828;2023-07-16T11:01:48;10.13;;;3.30;;
78589;SDS011;67888;50.228;7.828;2023-07-16T11:06:52;9.60;;;3.65;;
78589;SDS011;67888;50.228;7.828;2023-07-16T11:11:52;8.97;;;3.83;;
78589;SDS011;67888;50.228;7.828;2023-07-16T11:16:53;9.80;;;3.38;;
78589;SDS011;67888;50.228;7.828;2023-07-16T11:22:04;12.00;;;3.83;;
78589;SDS011;67888;50.228;7.828;2023-07-16T11:27:06;11.00;;;3.67;;
78589;SDS011;67888;50.228;7.828;2023-07-16T11:32:12;8.07;;;3.42;;
78589;SDS011;67888;50.228;7.828;2023-07-16T11:37:13;8.20;;;3.63;;
78589;SDS011;67888;50.228;7.828;2023-07-16T11:42:13;11.03;;;3.97;;
78589;SDS011;67888;50.228;7.828;2023-07-16T11:47:15;8.68;;;3.33;;
78589;SDS011;67888;50.228;7.828;2023-07-16T11:52:19;10.00;;;4.10;;
78589;SDS011;67888;50.228;7.828;2023-07-16T11:57:20;8.13;;;3.90;;
78589;SDS011;67888;50.228;7.828;2023-07-16T12:02:21;11.17;;;4.07;;
78589;SDS011;67888;50.228;7.828;2023-07-16T12:07:35;13.33;;;4.30;;
78589;SDS011;67888;50.228;7.828;2023-07-16T12:12:35;10.10;;;4.75;;
78589;SDS011;67888;50.228;7.828;2023-07-16T12:17:38;10.03;;;4.57;;
78589;SDS011;67888;50.228;7.828;2023-07-16T12:22:38;9.82;;;4.40;;
78589;SDS011;67888;50.228;7.828;2023-07-16T12:27:39;9.83;;;4.47;;
78589;SDS011;67888;50.228;7.828;2023-07-16T12:32:39;8.97;;;4.63;;
78589;SDS011;67888;50.228;7.828;2023-07-16T12:37:40;9.43;;;4.60;;
78589;SDS011;67888;50.228;7.828;2023-07-16T12:42:40;11.00;;;4.70;;
78589;SDS011;67888;50.228;7.828;2023-07-16T12:47:41;11.82;;;4.90;;
78589;SDS011;67888;50.228;7.828;2023-07-16T12:52:42;11.57;;;4.80;;
78589;SDS011;67888;50.228;7.828;2023-07-16T12:57:42;10.67;;;4.93;;
78589;SDS011;67888;50.228;7.828;2023-07-16T13:02:43;11.60;;;4.90;;
78589;SDS011;67888;50.228;7.828;2023-07-16T13:07:43;9.57;;;4.90;;
78589;SDS011;67888;50.228;7.828;2023-07-16T13:12:44;9.32;;;4.80;;
78589;SDS011;67888;50.228;7.828;2023-07-16T13:17:44;11.33;;;4.80;;
78589;SDS011;67888;50.228;7.828;2023-07-16T13:22:44;10.83;;;5.10;;
78589;SDS011;67888;50.228;7.828;2023-07-16T13:27:45;10.63;;;4.63;;
78589;SDS011;67888;50.228;7.828;2023-07-16T13:32:45;10.00;;;4.50;;
78589;SDS011;67888;50.228;7.828;2023-07-16T13:37:46;8.10;;;4.22;;
78589;SDS011;67888;50.228;7.828;2023-07-16T13:42:47;9.77;;;4.47;;
78589;SDS011;67888;50.228;7.828;2023-07-16T13:47:48;10.47;;;4.70;;
78589;SDS011;67888;50.228;7.828;2023-07-16T13:52:49;10.25;;;4.53;;
78589;SDS011;67888;50.228;7.828;2023-07-16T13:57:49;8.73;;;4.83;;
78589;SDS011;67888;50.228;7.828;2023-07-16T14:02:50;12.57;;;4.87;;
78589;SDS011;67888;50.228;7.828;2023-07-16T14:07:51;12.27;;;4.63;;
78589;SDS011;67888;50.228;7.828;2023-07-16T14:12:53;8.77;;;4.63;;
78589;SDS011;67888;50.228;7.828;2023-07-16T14:17:54;9.85;;;4.88;;
78589;SDS011;67888;50.228;7.828;2023-07-16T14:22:54;8.63;;;4.37;;
78589;SDS011;67888;50.228;7.828;2023-07-16T14:27:55;10.73;;;4.90;;
78589;SDS011;67888;50.228;7.828;2023-07-16T14:32:57;9.23;;;4.50;;
78589;SDS011;67888;50.228;7.828;2023-07-16T14:37:59;11.53;;;5.33;;
78589;SDS011;67888;50.228;7.828;2023-07-16T14:42:59;10.60;;;4.80;;
78589;SDS011;67888;50.228;7.828;2023-07-16T14:48:01;10.48;;;5.78;;
78589;SDS011;67888;50.228;7.828;2023-07-16T14:53:01;9.67;;;5.53;;
78589;SDS011;67888;50.228;7.828;2023-07-16T14:58:02;8.63;;;5.43;;
78589;SDS011;67888;50.228;7.828;2023-07-16T15:03:03;15.13;;;5.53;;
78589;SDS011;67888;50.228;7.828;2023-07-16T15:08:04;9.27;;;6.30;;
78589;SDS011;67888;50.228;7.828;2023-07-16T15:13:05;9.90;;;4.37;;
78589;SDS011;67888;50.228;7.828;2023-07-16T15:18:06;8.67;;;4.63;;
78589;SDS011;67888;50.228;7.828;2023-07-16T15:23:06;9.70;;;4.73;;
78589;SDS011;67888;50.228;7.828;2023-07-16T15:28:07;10.13;;;4.17;;
78589;SDS011;67888;50.228;7.828;2023-07-16T15:33:08;9.40;;;5.20;;
78589;SDS011;67888;50.228;7.828;2023-07-16T15:38:08;11.00;;;5.30;;
78589;SDS011;67888;50.228;7.828;2023-07-16T15:43:08;9.77;;;6.57;;
78589;SDS011;67888;50.228;7.828;2023-07-16T15:48:09;9.87;;;7.17;;
78589;SDS011;67888;50.228;7.828;2023-07-16T15:53:12;11.63;;;6.68;;
78589;SDS011;67888;50.228;7.828;2023-07-16T15:58:13;9.38;;;7.20;;
78589;SDS011;67888;50.228;7.828;2023-07-16T16:03:14;13.30;;;7.67;;
78589;SDS011;67888;50.228;7.828;2023-07-16T16:08:16;12.33;;;8.50;;
78589;SDS011;67888;50.228;7.828;2023-07-16T16:13:19;10.27;;;9.20;;
78589;SDS011;67888;50.228;7.828;2023-07-16T16:18:19;11.50;;;9.23;;
78589;SDS011;67888;50.228;7.828;2023-07-16T16:23:20;13.57;;;12.30;;
78589;SDS011;67888;50.228;7.828;2023-07-16T16:28:21;10.50;;;6.03;;
78589;SDS011;67888;50.228;7.828;2023-07-16T16:33:23;19.70;;;18.13;;
78589;SDS011;67888;50.228;7.828;2023-07-16T16:38:23;20.47;;;18.67;;
78589;SDS011;67888;50.228;7.828;2023-07-16T16:43:24;21.85;;;20.05;;
78589;SDS011;67888;50.228;7.828;2023-07-16T16:48:24;19.60;;;17.57;;
78589;SDS011;67888;50.228;7.828;2023-07-16T16:53:25;16.53;;;15.03;;
78589;SDS011;67888;50.228;7.828;2023-07-16T16:58:26;12.93;;;11.73;;
78589;SDS011;67888;50.228;7.828;2023-07-16T17:03:26;15.30;;;13.80;;
78589;SDS011;67888;50.228;7.828;2023-07-16T17:08:27;19.80;;;18.10;;
78589;SDS011;67888;50.228;7.828;2023-07-16T17:13:27;19.73;;;18.13;;
78589;SDS011;67888;50.228;7.828;2023-07-16T17:18:28;19.60;;;17.90;;
78589;SDS011;67888;50.228;7.828;2023-07-16T17:23:28;20.40;;;18.60;;
78589;SDS011;67888;50.228;7.828;2023-07-16T17:28:29;19.83;;;18.33;;
78589;SDS011;67888;50.228;7.828;2023-07-16T17:33:29;19.63;;;17.93;;
78589;SDS011;67888;50.228;7.828;2023-07-16T17:38:30;18.37;;;16.47;;
78589;SDS011;67888;50.228;7.828;2023-07-16T17:43:30;15.50;;;14.10;;
78589;SDS011;67888;50.228;7.828;2023-07-16T17:48:31;12.13;;;10.70;;
78589;SDS011;67888;50.228;7.828;2023-07-16T17:53:31;12.27;;;11.07;;
78589;SDS011;67888;50.228;7.828;2023-07-16T17:58:31;10.50;;;6.50;;
78589;SDS011;67888;50.228;7.828;2023-07-16T18:03:34;8.23;;;4.60;;
78589;SDS011;67888;50.228;7.828;2023-07-16T18:08:35;11.83;;;6.57;;
78589;SDS011;67888;50.228;7.828;2023-07-16T18:13:36;17.13;;;13.55;;
78589;SDS011;67888;50.228;7.828;2023-07-16T18:18:36;11.40;;;4.90;;
78589;SDS011;67888;50.228;7.828;2023-07-16T18:23:37;9.53;;;4.30;;
78589;SDS011;67888;50.228;7.828;2023-07-16T18:28:37;8.83;;;4.23;;
78589;SDS011;67888;50.228;7.828;2023-07-16T18:33:38;10.52;;;4.30;;
78589;SDS011;67888;50.228;7.828;2023-07-16T18:38:38;10.63;;;4.40;;
78589;SDS011;67888;50.228;7.828;2023-07-16T18:43:39;11.63;;;4.60;;
78589;SDS011;67888;50.228;7.828;2023-07-16T18:48:40;12.77;;;4.82;;
78589;SDS011;67888;50.228;7.828;2023-07-16T18:53:40;12.03;;;4.63;;
78589;SDS011;67888;50.228;7.828;2023-07-16T18:58:41;10.07;;;4.40;;
78589;SDS011;67888;50.228;7.828;2023-07-16T19:03:41;12.27;;;4.47;;
78589;SDS011;67888;50.228;7.828;2023-07-16T19:08:42;11.10;;;4.67;;
78589;SDS011;67888;50.228;7.828;2023-07-16T19:13:42;11.23;;;4.30;;
78589;SDS011;67888;50.228;7.828;2023-07-16T19:18:43;11.27;;;4.63;;
78589;SDS011;67888;50.228;7.828;2023-07-16T19:23:43;11.17;;;4.87;;
78589;SDS011;67888;50.228;7.828;2023-07-16T19:28:44;9.17;;;4.80;;
78589;SDS011;67888;50.228;7.828;2023-07-16T19:33:44;10.13;;;4.87;;
78589;SDS011;67888;50.228;7.828;2023-07-16T19:38:45;10.55;;;4.82;;
78589;SDS011;67888;50.228;7.828;2023-07-16T19:43:45;10.07;;;4.80;;
78589;SDS011;67888;50.228;7.828;2023-07-16T19:48:46;11.43;;;4.70;;
78589;SDS011;67888;50.228;7.828;2023-07-16T19:53:46;11.90;;;4.53;;
78589;SDS011;67888;50.228;7.828;2023-07-16T19:58:47;11.97;;;5.00;;
78589;SDS011;67888;50.228;7.828;2023-07-16T20:03:47;11.17;;;4.70;;
78589;SDS011;67888;50.228;7.828;2023-07-16T20:08:47;9.37;;;4.17;;
78589;SDS011;67888;50.228;7.828;2023-07-16T20:13:48;10.87;;;4.63;;
78589;SDS011;67888;50.228;7.828;2023-07-16T20:18:49;10.40;;;4.90;;
78589;SDS011;67888;50.228;7.828;2023-07-16T20:23:49;10.80;;;4.70;;
78589;SDS011;67888;50.228;7.828;2023-07-16T20:28:50;11.75;;;4.20;;
78589;SDS011;67888;50.228;7.828;2023-07-16T20:33:50;12.00;;;5.00;;
78589;SDS011;67888;50.228;7.828;2023-07-16T20:38:51;12.10;;;4.80;;
78589;SDS011;67888;50.228;7.828;2023-07-16T20:43:51;16.03;;;4.73;;
78589;SDS011;67888;50.228;7.828;2023-07-16T20:48:55;10.25;;;4.60;;
78589;SDS011;67888;50.228;7.828;2023-07-16T20:53:56;11.70;;;5.03;;
78589;SDS011;67888;50.228;7.828;2023-07-16T20:58:57;9.65;;;4.30;;
78589;SDS011;67888;50.228;7.828;2023-07-16T21:03:58;11.77;;;4.57;;
78589;SDS011;67888;50.228;7.828;2023-07-16T21:08:58;12.95;;;5.18;;
78589;SDS011;67888;50.228;7.828;2023-07-16T21:13:58;11.77;;;5.17;;
78589;SDS011;67888;50.228;7.828;2023-07-16T21:18:59;11.40;;;4.63;;
78589;SDS011;67888;50.228;7.828;2023-07-16T21:23:59;12.47;;;4.80;;
78589;SDS011;67888;50.228;7.828;2023-07-16T21:28:59;13.20;;;4.93;;
78589;SDS011;67888;50.228;7.828;2023-07-16T21:34:00;11.53;;;4.83;;
78589;SDS011;67888;50.228;7.828;2023-07-16T21:39:00;9.77;;;4.13;;
78589;SDS011;67888;50.228;7.828;2023-07-16T21:44:00;13.80;;;5.47;;
78589;SDS011;67888;50.228;7.828;2023-07-16T21:49:01;13.68;;;5.18;;
78589;SDS011;67888;50.228;7.828;2023-07-16T21:54:01;14.07;;;5.30;;
78589;SDS011;67888;50.228;7.828;2023-07-16T21:59:01;11.80;;;5.73;;
78589;SDS011;67888;50.228;7.828;2023-07-16T22:04:02;11.10;;;4.93;;
78589;SDS011;67888;50.228;7.828;2023-07-16T22:09:02;10.67;;;4.73;;
78589;SDS011;67888;50.228;7.828;2023-07-16T22:14:05;11.98;;;4.45;;
78589;SDS011;67888;50.228;7.828;2023-07-16T22:19:06;12.17;;;5.17;;
78589;SDS011;67888;50.228;7.828;2023-07-16T22:24:07;10.00;;;4.63;;
78589;SDS011;67888;50.228;7.828;2023-07-16T22:29:07;11.10;;;4.77;;
78589;SDS011;67888;50.228;7.828;2023-07-16T22:34:08;12.15;;;4.85;;
78589;SDS011;67888;50.228;7.828;2023-07-16T22:39:08;11.70;;;4.97;;
78589;SDS011;67888;50.228;7.828;2023-07-16T22:44:08;11.67;;;5.00;;
78589;SDS011;67888;50.228;7.828;2023-07-16T22:49:09;11.65;;;4.50;;
78589;SDS011;67888;50.228;7.828;2023-07-16T22:54:12;13.57;;;5.17;;
78589;SDS011;67888;50.228;7.828;2023-07-16T22:59:12;13.13;;;5.03;;
78589;SDS011;67888;50.228;7.828;2023-07-16T23:04:13;11.93;;;4.93;;
78589;SDS011;67888;50.228;7.828;2023-07-16T23:09:15;11.57;;;4.32;;
78589;SDS011;67888;50.228;7.828;2023-07-16T23:14:15;13.03;;;4.80;;
78589;SDS011;67888;50.228;7.828;2023-07-16T23:19:16;10.83;;;4.40;;
78589;SDS011;67888;50.228;7.828;2023-07-16T23:24:16;10.77;;;4.90;;
78589;SDS011;67888;50.228;7.828;2023-07-16T23:29:17;11.33;;;5.10;;
78589;SDS011;67888;50.228;7.828;2023-07-16T23:34:17;11.13;;;5.00;;
78589;SDS011;67888;50.228;7.828;2023-07-16T23:39:18;10.05;;;4.90;;
78589;SDS011;67888;50.228;7.828;2023-07-16T23:44:18;11.23;;;5.00;;
78589;SDS011;67888;50.228;7.828;2023-07-16T23:49:18;13.03;;;5.30;;
78589;SDS011;67888;50.228;7.828;2023-07-16T23:54:19;11.50;;;4.72;;
78589;SDS011;67888;50.228;7.828;2023-07-16T23:59:19;9.80;;;4.53;;
